createdAt,value
2022-10-16T00:02:41.752Z,99.99
2022-10-16T00:07:41.638Z,99.99
2022-10-16T00:12:41.634Z,99.99
2022-10-16T00:17:41.518Z,99.99
2022-10-16T00:22:41.455Z,99.99
2022-10-16T00:27:41.390Z,99.99
2022-10-16T00:32:41.321Z,99.99
2022-10-16T00:37:41.263Z,99.99
2022-10-16T00:42:41.192Z,99.99
2022-10-16T00:47:41.182Z,99.99
2022-10-16T00:52:41.063Z,99.99
2022-10-16T00:57:40.994Z,99.99
2022-10-16T01:02:40.926Z,99.99
2022-10-16T01:07:40.857Z,99.99
2022-10-16T01:12:42.116Z,99.99
2022-10-16T01:17:40.728Z,99.99
2022-10-16T01:22:40.697Z,99.99
2022-10-16T01:27:40.596Z,99.99
2022-10-16T01:32:40.537Z,99.99
2022-10-16T01:37:40.475Z,99.99
2022-10-16T01:42:40.403Z,99.99
2022-10-16T01:47:40.332Z,99.99
2022-10-16T01:52:40.271Z,99.99
2022-10-16T01:57:40.222Z,99.99
2022-10-16T02:02:40.153Z,99.99
2022-10-16T02:07:40.073Z,99.99
2022-10-16T02:12:40.026Z,99.99
2022-10-16T02:17:39.956Z,99.99
2022-10-16T02:22:39.886Z,99.99
2022-10-16T02:27:39.822Z,99.99
2022-10-16T02:32:39.767Z,99.99
2022-10-16T02:37:39.686Z,99.99
2022-10-16T02:42:39.970Z,99.99
2022-10-16T02:47:39.557Z,99.99
2022-10-16T02:52:39.514Z,99.99
2022-10-16T02:57:39.454Z,99.99
2022-10-16T03:02:39.394Z,99.99
2022-10-16T03:07:39.284Z,99.99
2022-10-16T03:12:39.243Z,99.99
2022-10-16T03:17:39.132Z,99.99
2022-10-16T03:22:39.102Z,99.99
2022-10-16T03:27:39.033Z,99.99
2022-10-16T03:32:38.957Z,99.99
2022-10-16T03:37:38.891Z,99.99
2022-10-16T03:42:38.845Z,99.99
2022-10-16T03:47:38.757Z,99.99
2022-10-16T03:52:38.699Z,99.99
2022-10-16T03:57:38.633Z,99.99
2022-10-16T04:02:38.641Z,99.99
2022-10-16T04:07:38.496Z,99.99
2022-10-16T04:12:38.450Z,99.99
2022-10-16T04:17:38.350Z,99.99
2022-10-16T04:22:38.300Z,99.99
2022-10-16T04:27:41.048Z,99.99
2022-10-16T04:32:39.173Z,99.99
2022-10-16T04:37:38.082Z,99.99
2022-10-16T04:42:38.033Z,99.99
2022-10-16T04:47:38.003Z,99.99
2022-10-16T04:52:37.919Z,99.99
2022-10-16T04:57:37.847Z,99.99
2022-10-16T05:02:37.828Z,99.99
2022-10-16T05:07:37.721Z,99.99
2022-10-16T05:12:37.657Z,99.99
2022-10-16T05:17:41.143Z,99.99
2022-10-16T05:22:38.507Z,99.99
2022-10-16T05:27:37.457Z,99.99
2022-10-16T05:32:37.377Z,99.99
2022-10-16T05:37:37.355Z,99.99
2022-10-16T05:42:37.256Z,99.99
2022-10-16T05:47:37.175Z,99.99
2022-10-16T05:52:37.133Z,99.99
2022-10-16T05:57:37.050Z,99.99
2022-10-16T06:02:36.999Z,99.99
2022-10-16T06:07:36.914Z,99.99
2022-10-16T06:12:36.905Z,99.99
2022-10-16T06:17:36.787Z,99.99
2022-10-16T06:22:36.725Z,99.99
2022-10-16T06:27:36.676Z,99.99
2022-10-16T06:32:36.596Z,99.99
2022-10-16T06:37:36.528Z,99.99
2022-10-16T06:42:36.458Z,99.99
2022-10-16T06:47:36.390Z,99.99
2022-10-16T06:52:36.339Z,99.99
2022-10-16T06:57:36.268Z,99.99
2022-10-16T07:02:36.190Z,99.99
2022-10-16T07:07:36.182Z,99.99
2022-10-16T07:12:36.183Z,99.99
2022-10-16T07:17:36.014Z,99.99
2022-10-16T07:22:35.946Z,99.99
2022-10-16T07:32:35.835Z,99.99
2022-10-16T07:37:35.745Z,99.99
2022-10-16T07:42:35.693Z,99.99
2022-10-16T07:47:35.607Z,99.99
2022-10-16T07:52:35.547Z,99.99
2022-10-16T07:57:35.508Z,99.95
2022-10-16T08:02:35.439Z,98.94
2022-10-16T08:07:35.356Z,99.00
2022-10-16T08:12:35.298Z,96.59
2022-10-16T08:17:35.279Z,98.95
2022-10-16T08:22:35.210Z,96.89
2022-10-16T08:27:35.129Z,93.49
2022-10-16T08:32:35.044Z,91.44
2022-10-16T08:37:34.965Z,89.69
2022-10-16T08:42:34.924Z,87.88
2022-10-16T08:47:34.864Z,86.64
2022-10-16T08:52:34.786Z,86.74
2022-10-16T08:57:34.730Z,86.94
2022-10-16T09:02:34.664Z,86.88
2022-10-16T09:07:34.589Z,86.08
2022-10-16T09:12:34.538Z,87.73
2022-10-16T09:17:34.465Z,89.33
2022-10-16T09:22:34.424Z,88.48
2022-10-16T09:27:34.330Z,88.54
2022-10-16T09:32:34.273Z,88.80
2022-10-16T09:37:34.531Z,87.00
2022-10-16T09:42:34.154Z,86.69
2022-10-16T09:47:34.085Z,85.96
2022-10-16T09:52:34.025Z,84.41
2022-10-16T09:57:33.958Z,83.21
2022-10-16T10:02:33.909Z,82.61
2022-10-16T10:07:33.837Z,83.17
2022-10-16T10:12:34.187Z,80.93
2022-10-16T10:17:33.732Z,81.59
2022-10-16T10:22:33.644Z,82.35
2022-10-16T10:27:33.589Z,78.88
2022-10-16T10:32:33.515Z,78.68
2022-10-16T10:37:33.474Z,78.68
2022-10-16T10:42:33.384Z,77.08
2022-10-16T10:47:33.314Z,76.65
2022-10-16T10:52:33.267Z,76.61
2022-10-16T10:57:33.224Z,75.51
2022-10-16T11:02:33.138Z,77.11
2022-10-16T11:07:33.059Z,76.45
2022-10-16T11:12:33.003Z,77.94
2022-10-16T11:17:32.943Z,78.34
2022-10-16T11:22:32.887Z,79.28
2022-10-16T11:27:32.815Z,78.44
2022-10-16T11:32:32.745Z,79.17
2022-10-16T11:37:32.687Z,79.28
2022-10-16T11:42:32.627Z,78.64
2022-10-16T11:52:33.490Z,79.17
2022-10-16T11:57:32.420Z,80.18
2022-10-16T12:02:32.363Z,79.84
2022-10-16T12:07:32.296Z,77.70
2022-10-16T12:12:34.474Z,78.70
2022-10-16T12:17:32.162Z,75.71
2022-10-16T12:22:32.105Z,75.78
2022-10-16T12:27:32.046Z,75.87
2022-10-16T12:32:48.111Z,75.14
2022-10-16T12:37:32.915Z,74.90
2022-10-16T12:42:31.858Z,73.47
2022-10-16T12:47:31.792Z,72.58
2022-10-16T12:52:31.749Z,73.38
2022-10-16T12:57:32.493Z,74.27
2022-10-16T13:02:31.623Z,73.68
2022-10-16T13:07:31.553Z,71.95
2022-10-16T13:12:31.494Z,73.04
2022-10-16T13:17:31.426Z,71.45
2022-10-16T13:22:31.370Z,72.14
2022-10-16T13:27:31.279Z,70.65
2022-10-16T13:32:31.220Z,72.34
2022-10-16T13:37:31.149Z,74.54
2022-10-16T13:42:31.092Z,74.10
2022-10-16T13:47:31.279Z,75.03
2022-10-16T13:52:30.958Z,75.03
2022-10-16T13:57:30.887Z,75.33
2022-10-16T14:02:30.883Z,75.03
2022-10-16T14:07:30.757Z,75.87
2022-10-16T14:12:31.040Z,75.33
2022-10-16T14:17:30.625Z,75.27
2022-10-16T14:22:30.605Z,76.20
2022-10-16T14:27:30.538Z,77.23
2022-10-16T14:32:30.473Z,77.97
2022-10-16T14:37:30.873Z,78.56
2022-10-16T14:42:30.314Z,79.27
2022-10-16T14:47:30.711Z,79.16
2022-10-16T14:52:30.195Z,79.06
2022-10-16T14:57:30.353Z,79.46
2022-10-16T15:02:30.079Z,79.70
2022-10-16T15:07:30.099Z,79.90
2022-10-16T15:12:29.971Z,80.64
2022-10-16T15:17:30.042Z,80.47
2022-10-16T15:22:29.827Z,81.31
2022-10-16T15:27:30.565Z,82.31
2022-10-16T15:32:29.697Z,82.85
2022-10-16T15:37:29.841Z,83.79
2022-10-16T15:42:29.997Z,84.39
2022-10-16T15:47:29.487Z,84.49
2022-10-16T15:52:29.598Z,84.73
2022-10-16T15:57:29.421Z,85.13
2022-10-16T16:02:29.582Z,85.68
2022-10-16T16:07:29.240Z,85.91
2022-10-16T16:12:29.566Z,86.41
2022-10-16T16:17:29.104Z,88.40
2022-10-16T16:22:29.523Z,90.25
2022-10-16T16:27:29.399Z,91.74
2022-10-16T16:32:28.955Z,93.63
2022-10-16T16:37:29.207Z,94.98
2022-10-16T16:42:28.791Z,95.13
2022-10-16T16:47:28.952Z,95.88
2022-10-16T16:52:28.704Z,96.83
2022-10-16T16:57:28.889Z,97.18
2022-10-16T17:02:28.543Z,97.08
2022-10-16T17:07:28.971Z,99.08
2022-10-16T17:12:29.376Z,99.94
2022-10-16T17:17:28.523Z,99.99
2022-10-16T17:22:28.624Z,99.99
2022-10-16T17:27:28.264Z,99.99
2022-10-16T17:32:28.380Z,99.99
2022-10-16T17:37:28.100Z,99.99
2022-10-16T17:42:28.462Z,99.99
2022-10-16T17:47:27.966Z,99.99
2022-10-16T17:52:28.222Z,99.99
2022-10-16T17:57:27.898Z,99.99
2022-10-16T18:02:28.092Z,99.99
2022-10-16T18:07:27.754Z,99.99
2022-10-16T18:12:27.954Z,99.99
2022-10-16T18:17:27.741Z,99.99
2022-10-16T18:22:27.589Z,99.99
2022-10-16T18:27:27.826Z,99.99
2022-10-16T18:32:27.394Z,99.99
2022-10-16T18:37:27.468Z,99.99
2022-10-16T18:42:27.275Z,99.99
2022-10-16T18:47:27.471Z,99.99
2022-10-16T18:52:27.137Z,99.99
2022-10-16T18:57:27.194Z,99.99
2022-10-16T19:02:27.099Z,99.99
2022-10-16T19:07:27.091Z,99.99
2022-10-16T19:12:26.987Z,99.99
2022-10-16T19:17:26.821Z,99.99
2022-10-16T19:22:26.943Z,99.99
2022-10-16T19:27:26.692Z,99.99
2022-10-16T19:32:26.812Z,99.99
2022-10-16T19:37:26.578Z,99.99
2022-10-16T19:42:26.877Z,99.99
2022-10-16T19:47:26.425Z,99.99
2022-10-16T19:52:26.581Z,99.99
2022-10-16T19:57:26.336Z,99.99
2022-10-16T20:02:26.470Z,99.99
2022-10-16T20:07:28.200Z,99.99
2022-10-16T20:12:26.096Z,99.99
2022-10-16T20:17:26.242Z,99.99
2022-10-16T20:22:25.970Z,99.99
2022-10-16T20:27:26.409Z,99.99
2022-10-16T20:32:25.833Z,99.99
2022-10-16T20:37:25.982Z,99.99
2022-10-16T20:42:25.701Z,99.99
2022-10-16T20:47:25.889Z,99.99
2022-10-16T20:52:25.582Z,99.99
2022-10-16T20:57:25.789Z,99.99
2022-10-16T21:02:26.253Z,99.99
2022-10-16T21:07:25.745Z,99.99
2022-10-16T21:12:25.539Z,99.99
2022-10-16T21:17:25.246Z,99.99
2022-10-16T21:22:25.494Z,99.99
2022-10-16T21:27:25.107Z,99.99
2022-10-16T21:32:25.265Z,99.99
2022-10-16T21:37:24.990Z,99.99
2022-10-16T21:42:25.250Z,99.99
2022-10-16T21:47:24.889Z,99.99
2022-10-16T21:52:25.121Z,99.99
2022-10-16T21:57:24.868Z,99.99
2022-10-16T22:02:24.670Z,99.99
2022-10-16T22:07:24.907Z,99.99
2022-10-16T22:12:24.551Z,99.99
2022-10-16T22:17:24.704Z,99.99
2022-10-16T22:22:24.402Z,99.99
2022-10-16T22:27:24.600Z,99.99
2022-10-16T22:32:24.284Z,99.99
2022-10-16T22:37:24.463Z,99.99
2022-10-16T22:42:24.167Z,99.99
2022-10-16T22:47:24.136Z,99.99
2022-10-16T22:52:24.033Z,99.99
2022-10-16T22:57:24.027Z,99.99
2022-10-16T23:02:24.145Z,99.99
2022-10-16T23:07:23.878Z,99.99
2022-10-16T23:12:23.782Z,99.99
2022-10-16T23:17:23.727Z,99.99
2022-10-16T23:22:23.671Z,99.99
2022-10-16T23:27:23.593Z,99.99
2022-10-16T23:32:23.521Z,99.99
2022-10-16T23:37:23.469Z,99.99
2022-10-16T23:42:23.410Z,99.99
2022-10-16T23:47:23.336Z,99.99
2022-10-16T23:52:23.264Z,99.99
2022-10-16T23:57:23.208Z,99.99
